Time;durP1;ratioP1;P1;durP2;ratioP2;P2;SDS_P1;SDS_P2;PMS_P1;PMS_P2;Temp;Humidity;BMP_temperature;BMP_pressure;BME280_temperature;BME280_humidity;BME280_pressure;Samples;Min_cycle;Max_cycle;Signal;HPM_P1;HPM_P2
2023/08/16 00:00:17;;;;;;;7.55;5.78;;;;;;;;;;5079727;28;20044;-81
2023/08/16 00:02:45;;;;;;;7.70;5.10;;;;;;;;;;5085238;28;20053;-81
2023/08/16 00:05:14;;;;;;;9.60;5.55;;;;;;;;;;5086903;28;20033;-81
2023/08/16 00:07:41;;;;;;;6.32;5.72;;;;;;;;;;5095118;28;20056;-81
2023/08/16 00:10:12;;;;;;;7.07;5.00;;;;;;;;;;5094742;28;20048;-81
2023/08/16 00:12:39;;;;;;;5.35;4.95;;;;;;;;;;5094839;28;20075;-83
2023/08/16 00:15:07;;;;;;;8.80;5.93;;;;;;;;;;5090508;28;20458;-81
2023/08/16 00:17:34;;;;;;;8.63;5.78;;;;;;;;;;5077845;28;20045;-81
2023/08/16 00:20:03;;;;;;;8.60;5.40;;;;;;;;;;5078342;28;20049;-81
2023/08/16 00:22:30;;;;;;;9.10;5.13;;;;;;;;;;5088493;28;20059;-81
2023/08/16 00:24:58;;;;;;;7.20;5.20;;;;;;;;;;5085825;28;20048;-81
2023/08/16 00:27:25;;;;;;;6.35;5.82;;;;;;;;;;5082109;28;20052;-81
2023/08/16 00:29:52;;;;;;;6.22;5.20;;;;;;;;;;5078031;28;20048;-81
2023/08/16 00:32:19;;;;;;;7.43;5.03;;;;;;;;;;5081749;28;20044;-82
2023/08/16 00:34:46;;;;;;;6.25;4.78;;;;;;;;;;5080080;28;20106;-81
2023/08/16 00:37:13;;;;;;;7.65;5.68;;;;;;;;;;5078679;28;20102;-81
2023/08/16 00:39:41;;;;;;;9.80;5.90;;;;;;;;;;5079153;28;20048;-82
2023/08/16 00:42:08;;;;;;;7.38;5.38;;;;;;;;;;5077027;28;20048;-81
2023/08/16 00:44:35;;;;;;;5.70;4.80;;;;;;;;;;5078174;28;20074;-81
2023/08/16 00:47:04;;;;;;;8.40;5.80;;;;;;;;;;5075865;28;20127;-81
2023/08/16 00:49:32;;;;;;;5.88;5.00;;;;;;;;;;5078043;28;20102;-81
2023/08/16 00:52:00;;;;;;;10.27;5.63;;;;;;;;;;5078823;28;20049;-81
2023/08/16 00:54:27;;;;;;;5.57;5.07;;;;;;;;;;5077424;28;20102;-81
2023/08/16 00:56:55;;;;;;;6.80;4.90;;;;;;;;;;5077176;28;20041;-81
2023/08/16 00:59:22;;;;;;;6.10;5.50;;;;;;;;;;5080832;28;20422;-81
2023/08/16 01:01:49;;;;;;;9.55;5.00;;;;;;;;;;5080948;28;20465;-81
2023/08/16 01:04:16;;;;;;;6.75;4.88;;;;;;;;;;5079045;28;20072;-81
2023/08/16 01:06:44;;;;;;;10.32;5.10;;;;;;;;;;5078431;28;20049;-81
2023/08/16 01:09:11;;;;;;;5.40;5.00;;;;;;;;;;5078101;28;20040;-81
2023/08/16 01:11:44;;;;;;;5.28;4.88;;;;;;;;;;5079926;28;20053;-81
2023/08/16 01:14:18;;;;;;;8.02;5.03;;;;;;;;;;5081726;28;20044;-81
2023/08/16 01:16:45;;;;;;;7.47;4.90;;;;;;;;;;5084291;28;20041;-81
2023/08/16 01:19:18;;;;;;;5.38;4.82;;;;;;;;;;5083083;28;20058;-81
2023/08/16 01:21:50;;;;;;;7.87;5.50;;;;;;;;;;5081919;28;20212;-81
2023/08/16 01:24:22;;;;;;;6.65;5.63;;;;;;;;;;5080586;28;20098;-81
2023/08/16 01:26:50;;;;;;;6.88;5.30;;;;;;;;;;5081671;28;20483;-81
2023/08/16 01:29:18;;;;;;;5.60;5.13;;;;;;;;;;5079710;28;20053;-81
2023/08/16 01:31:46;;;;;;;5.03;4.63;;;;;;;;;;5079071;28;20049;-81
2023/08/16 01:34:13;;;;;;;11.00;5.07;;;;;;;;;;5082685;28;20083;-81
2023/08/16 01:36:40;;;;;;;5.45;5.03;;;;;;;;;;5080161;28;20048;-81
2023/08/16 01:39:08;;;;;;;6.32;5.25;;;;;;;;;;5078619;28;20048;-81
2023/08/16 01:41:46;;;;;;;6.13;5.20;;;;;;;;;;5074268;28;20052;-81
2023/08/16 01:44:13;;;;;;;6.22;4.97;;;;;;;;;;5074129;28;20049;-81
2023/08/16 01:46:42;;;;;;;6.88;5.10;;;;;;;;;;5073930;28;20048;-81
2023/08/16 01:49:10;;;;;;;5.15;4.72;;;;;;;;;;5074773;28;20120;-80
2023/08/16 01:51:37;;;;;;;5.97;5.38;;;;;;;;;;5073561;28;20044;-80
2023/08/16 01:54:04;;;;;;;7.30;5.63;;;;;;;;;;5073887;28;20052;-80
2023/08/16 01:56:32;;;;;;;9.40;4.88;;;;;;;;;;5073624;28;20048;-81
2023/08/16 01:58:59;;;;;;;5.25;4.72;;;;;;;;;;5074946;28;20071;-80
2023/08/16 02:01:26;;;;;;;6.80;5.00;;;;;;;;;;5073995;28;20056;-81
2023/08/16 02:03:54;;;;;;;6.28;4.78;;;;;;;;;;5076713;28;20052;-81
2023/08/16 02:06:22;;;;;;;5.55;4.63;;;;;;;;;;5076658;28;20465;-81
2023/08/16 02:08:50;;;;;;;5.30;4.90;;;;;;;;;;5076377;28;20048;-81
2023/08/16 02:11:18;;;;;;;5.80;5.25;;;;;;;;;;5077036;28;20410;-81
2023/08/16 02:13:45;;;;;;;8.63;4.88;;;;;;;;;;5074741;28;20105;-81
2023/08/16 02:16:12;;;;;;;6.10;5.50;;;;;;;;;;5075507;28;20051;-81
2023/08/16 02:18:40;;;;;;;5.80;5.30;;;;;;;;;;5075562;28;20052;-81
2023/08/16 02:21:07;;;;;;;5.30;4.80;;;;;;;;;;5084199;28;20041;-81
2023/08/16 02:23:35;;;;;;;10.65;5.03;;;;;;;;;;5081488;28;20072;-81
2023/08/16 02:26:02;;;;;;;10.50;5.45;;;;;;;;;;5076225;28;20045;-81
2023/08/16 02:28:29;;;;;;;7.60;5.65;;;;;;;;;;5076519;28;20060;-81
2023/08/16 02:31:06;;;;;;;5.30;4.80;;;;;;;;;;5076696;28;20098;-81
2023/08/16 02:33:34;;;;;;;6.45;4.88;;;;;;;;;;5074635;28;20427;-81
2023/08/16 02:36:01;;;;;;;8.23;5.03;;;;;;;;;;5075532;28;20109;-81
2023/08/16 02:38:29;;;;;;;5.75;5.13;;;;;;;;;;5074701;28;20056;-81
2023/08/16 02:40:56;;;;;;;5.78;5.00;;;;;;;;;;5076716;28;20044;-79
2023/08/16 02:43:23;;;;;;;5.45;4.95;;;;;;;;;;5087575;28;20057;-81
2023/08/16 02:45:50;;;;;;;6.07;5.45;;;;;;;;;;5084997;28;20044;-81
2023/08/16 02:48:17;;;;;;;5.88;5.25;;;;;;;;;;5082487;28;20067;-81
2023/08/16 02:50:45;;;;;;;5.82;5.28;;;;;;;;;;5080304;28;20083;-81
2023/08/16 02:53:13;;;;;;;6.80;5.20;;;;;;;;;;5081073;28;20048;-81
2023/08/16 02:55:40;;;;;;;5.68;5.10;;;;;;;;;;5080061;28;20460;-81
2023/08/16 02:58:07;;;;;;;6.30;5.65;;;;;;;;;;5080505;28;20055;-81
2023/08/16 03:00:35;;;;;;;6.05;5.45;;;;;;;;;;5078732;28;20041;-81
2023/08/16 03:03:02;;;;;;;8.70;5.72;;;;;;;;;;5079434;28;20049;-81
2023/08/16 03:05:29;;;;;;;6.22;5.43;;;;;;;;;;5078280;28;20140;-81
2023/08/16 03:07:57;;;;;;;6.60;5.53;;;;;;;;;;5080135;28;20054;-81
2023/08/16 03:10:24;;;;;;;10.13;5.85;;;;;;;;;;5079104;28;20102;-81
2023/08/16 03:12:51;;;;;;;6.07;5.60;;;;;;;;;;5077722;28;20074;-81
2023/08/16 03:15:19;;;;;;;9.38;5.60;;;;;;;;;;5077120;28;20068;-81
2023/08/16 03:17:46;;;;;;;6.90;6.22;;;;;;;;;;5085963;28;20044;-82
2023/08/16 03:20:13;;;;;;;8.93;6.03;;;;;;;;;;5090892;28;20051;-81
2023/08/16 03:22:40;;;;;;;6.32;5.82;;;;;;;;;;5078599;28;20052;-81
2023/08/16 03:25:08;;;;;;;6.25;5.65;;;;;;;;;;5077197;28;20074;-80
2023/08/16 03:27:35;;;;;;;8.98;5.57;;;;;;;;;;5077947;28;20098;-81
2023/08/16 03:30:03;;;;;;;6.47;5.78;;;;;;;;;;5080095;28;20049;-81
2023/08/16 03:32:30;;;;;;;9.35;5.97;;;;;;;;;;5078041;28;20048;-81
2023/08/16 03:34:57;;;;;;;8.25;5.97;;;;;;;;;;5077791;28;20044;-81
2023/08/16 03:37:25;;;;;;;7.97;6.07;;;;;;;;;;5078859;28;20052;-81
2023/08/16 03:39:52;;;;;;;8.73;6.18;;;;;;;;;;5077778;28;20056;-81
2023/08/16 03:42:20;;;;;;;6.93;5.88;;;;;;;;;;5077850;28;20105;-81
2023/08/16 03:44:47;;;;;;;9.32;6.75;;;;;;;;;;5077673;28;20049;-81
2023/08/16 03:47:14;;;;;;;9.30;6.70;;;;;;;;;;5078313;28;20048;-81
2023/08/16 03:49:44;;;;;;;7.00;6.30;;;;;;;;;;5077052;28;20113;-81
2023/08/16 03:52:11;;;;;;;7.32;6.70;;;;;;;;;;5077048;28;20062;-80
2023/08/16 03:54:38;;;;;;;10.23;6.90;;;;;;;;;;5073510;28;20469;-81
2023/08/16 03:57:05;;;;;;;8.35;7.55;;;;;;;;;;5073684;28;20098;-81
2023/08/16 03:59:33;;;;;;;7.43;6.78;;;;;;;;;;5073185;28;20095;-81
2023/08/16 04:02:00;;;;;;;7.70;7.15;;;;;;;;;;5072763;28;20388;-80
2023/08/16 04:04:27;;;;;;;7.22;6.55;;;;;;;;;;5071616;28;20109;-81
2023/08/16 04:06:54;;;;;;;7.85;7.25;;;;;;;;;;5072555;28;20045;-81
2023/08/16 04:09:22;;;;;;;8.25;7.43;;;;;;;;;;5074731;28;20048;-81
2023/08/16 04:11:50;;;;;;;11.32;8.95;;;;;;;;;;5073881;28;20051;-81
2023/08/16 04:14:17;;;;;;;14.05;9.60;;;;;;;;;;5072780;28;20392;-81
2023/08/16 04:16:44;;;;;;;16.30;9.25;;;;;;;;;;5075318;28;20044;-81
2023/08/16 04:19:12;;;;;;;9.63;8.27;;;;;;;;;;5072920;28;20222;-81
2023/08/16 04:21:39;;;;;;;13.02;9.43;;;;;;;;;;5073030;28;20090;-81
2023/08/16 04:24:07;;;;;;;14.70;9.65;;;;;;;;;;5074736;28;20476;-81
2023/08/16 04:26:34;;;;;;;12.50;10.07;;;;;;;;;;5072479;28;20059;-81
2023/08/16 04:29:01;;;;;;;11.20;9.95;;;;;;;;;;5078975;28;20056;-80
2023/08/16 04:31:29;;;;;;;12.85;8.88;;;;;;;;;;5079516;28;20053;-81
2023/08/16 04:33:56;;;;;;;11.48;8.98;;;;;;;;;;5081428;28;20071;-81
2023/08/16 04:36:23;;;;;;;11.30;9.35;;;;;;;;;;5082900;28;20049;-81
2023/08/16 04:38:50;;;;;;;14.07;11.20;;;;;;;;;;5080783;28;20392;-81
2023/08/16 04:41:18;;;;;;;11.65;10.63;;;;;;;;;;5081775;28;20048;-81
2023/08/16 04:43:45;;;;;;;15.20;10.88;;;;;;;;;;5081495;28;20471;-81
2023/08/16 04:46:12;;;;;;;11.98;10.88;;;;;;;;;;5079149;28;20106;-81
2023/08/16 04:48:39;;;;;;;18.30;13.27;;;;;;;;;;5078353;28;20051;-81
2023/08/16 04:51:06;;;;;;;17.17;12.57;;;;;;;;;;5080331;28;20052;-81
2023/08/16 04:53:34;;;;;;;15.50;12.73;;;;;;;;;;5078450;28;20044;-81
2023/08/16 04:56:01;;;;;;;12.23;10.63;;;;;;;;;;5079426;28;20136;-81
2023/08/16 04:58:28;;;;;;;12.10;10.55;;;;;;;;;;5076966;28;20491;-81
2023/08/16 05:00:56;;;;;;;15.32;11.30;;;;;;;;;;5076020;28;20095;-81
2023/08/16 05:03:23;;;;;;;11.98;8.90;;;;;;;;;;5075766;28;20469;-81
2023/08/16 05:05:55;;;;;;;9.38;8.43;;;;;;;;;;5075859;28;20084;-81
2023/08/16 05:08:23;;;;;;;10.80;8.70;;;;;;;;;;5075899;28;20423;-81
2023/08/16 05:10:50;;;;;;;9.00;7.95;;;;;;;;;;5077381;28;20048;-81
2023/08/16 05:13:17;;;;;;;8.60;7.80;;;;;;;;;;5077932;28;20048;-80
2023/08/16 05:15:45;;;;;;;8.75;7.30;;;;;;;;;;5076073;28;20060;-80
2023/08/16 05:18:12;;;;;;;10.02;7.38;;;;;;;;;;5075949;28;20059;-81
2023/08/16 05:20:40;;;;;;;7.70;7.10;;;;;;;;;;5076612;28;20048;-81
2023/08/16 05:23:07;;;;;;;9.43;7.35;;;;;;;;;;5076721;28;20051;-81
2023/08/16 05:25:37;;;;;;;10.32;7.13;;;;;;;;;;5077673;28;20049;-81
2023/08/16 05:28:05;;;;;;;10.23;7.43;;;;;;;;;;5078949;28;20143;-81
2023/08/16 05:30:32;;;;;;;7.07;6.32;;;;;;;;;;5078654;28;20056;-81
2023/08/16 05:32:59;;;;;;;13.02;7.03;;;;;;;;;;5078317;28;20098;-81
2023/08/16 05:35:26;;;;;;;9.27;6.13;;;;;;;;;;5078225;28;20131;-81
2023/08/16 05:37:54;;;;;;;6.55;5.70;;;;;;;;;;5079328;28;20142;-81
2023/08/16 05:40:21;;;;;;;6.82;6.00;;;;;;;;;;5079778;28;20070;-81
2023/08/16 05:42:49;;;;;;;9.30;5.78;;;;;;;;;;5080036;28;20102;-81
2023/08/16 05:45:16;;;;;;;11.63;6.53;;;;;;;;;;5080890;28;20048;-81
2023/08/16 05:47:43;;;;;;;9.50;6.43;;;;;;;;;;5078727;28;20044;-81
2023/08/16 05:50:11;;;;;;;12.15;6.60;;;;;;;;;;5080264;28;20074;-81
2023/08/16 05:52:38;;;;;;;16.48;6.47;;;;;;;;;;5080692;28;20053;-81
2023/08/16 05:55:05;;;;;;;9.93;6.18;;;;;;;;;;5079846;28;20040;-82
2023/08/16 05:57:33;;;;;;;7.45;6.47;;;;;;;;;;5077489;28;20048;-81
2023/08/16 06:00:00;;;;;;;21.80;6.13;;;;;;;;;;5078662;28;20097;-81
2023/08/16 06:02:27;;;;;;;18.98;6.88;;;;;;;;;;5079785;28;20040;-81
2023/08/16 06:04:54;;;;;;;12.50;6.30;;;;;;;;;;5079618;28;20045;-81
2023/08/16 06:07:22;;;;;;;8.55;5.85;;;;;;;;;;5083908;28;20060;-82
2023/08/16 06:09:50;;;;;;;9.90;6.38;;;;;;;;;;5082380;28;20106;-81
2023/08/16 06:12:17;;;;;;;11.18;6.15;;;;;;;;;;5081188;28;20048;-81
2023/08/16 06:14:45;;;;;;;10.57;6.50;;;;;;;;;;5080372;28;20045;-81
2023/08/16 06:17:12;;;;;;;12.70;6.30;;;;;;;;;;5080293;28;20508;-81
2023/08/16 06:19:39;;;;;;;7.85;6.43;;;;;;;;;;5077742;28;20169;-82
2023/08/16 06:22:06;;;;;;;10.05;6.97;;;;;;;;;;5080526;28;20395;-81
2023/08/16 06:24:35;;;;;;;15.13;6.18;;;;;;;;;;5079102;28;20052;-81
2023/08/16 06:27:02;;;;;;;8.32;6.13;;;;;;;;;;5078856;28;20084;-81
2023/08/16 06:29:29;;;;;;;7.97;6.43;;;;;;;;;;5079651;28;20057;-81
2023/08/16 06:31:59;;;;;;;9.02;6.85;;;;;;;;;;5079103;28;20098;-81
2023/08/16 06:34:26;;;;;;;12.13;7.13;;;;;;;;;;5080331;28;20112;-81
2023/08/16 06:36:53;;;;;;;11.55;7.63;;;;;;;;;;5077921;28;20055;-81
2023/08/16 06:39:21;;;;;;;9.60;7.88;;;;;;;;;;5073756;28;20044;-81
2023/08/16 06:41:49;;;;;;;12.82;9.18;;;;;;;;;;5076677;28;20045;-81
2023/08/16 06:44:16;;;;;;;18.77;11.45;;;;;;;;;;5078894;28;20415;-82
2023/08/16 06:46:43;;;;;;;15.95;10.85;;;;;;;;;;5081607;28;20113;-81
2023/08/16 06:49:11;;;;;;;13.52;9.85;;;;;;;;;;5079923;28;20075;-82
2023/08/16 06:51:38;;;;;;;12.15;10.35;;;;;;;;;;5081015;28;20052;-81
2023/08/16 06:54:05;;;;;;;16.60;9.98;;;;;;;;;;5079982;28;20040;-82
2023/08/16 06:56:32;;;;;;;14.23;10.02;;;;;;;;;;5082535;28;20441;-82
2023/08/16 06:59:00;;;;;;;13.77;9.55;;;;;;;;;;5090902;28;20044;-81
2023/08/16 07:01:27;;;;;;;12.07;9.57;;;;;;;;;;5091757;28;20048;-82
2023/08/16 07:03:56;;;;;;;12.77;9.60;;;;;;;;;;5094050;28;20048;-81
2023/08/16 07:06:26;;;;;;;10.55;8.88;;;;;;;;;;5092351;28;20046;-81
2023/08/16 07:08:54;;;;;;;12.05;8.68;;;;;;;;;;5071956;28;20426;-81
2023/08/16 07:11:21;;;;;;;9.75;8.30;;;;;;;;;;5071688;28;20048;-81
2023/08/16 07:13:48;;;;;;;9.20;7.85;;;;;;;;;;5072025;28;20048;-81
2023/08/16 07:16:16;;;;;;;12.18;8.55;;;;;;;;;;5071873;28;20052;-81
2023/08/16 07:18:43;;;;;;;12.95;9.35;;;;;;;;;;5071724;28;20072;-81
2023/08/16 07:21:11;;;;;;;14.55;9.50;;;;;;;;;;5073838;28;20048;-82
2023/08/16 07:23:38;;;;;;;12.32;9.90;;;;;;;;;;5072725;28;20501;-81
2023/08/16 07:26:05;;;;;;;14.10;10.15;;;;;;;;;;5071740;28;20044;-81
2023/08/16 07:28:32;;;;;;;16.38;10.18;;;;;;;;;;5071844;28;20061;-81
2023/08/16 07:31:01;;;;;;;18.13;10.80;;;;;;;;;;5071957;28;20128;-82
2023/08/16 07:33:30;;;;;;;14.75;9.85;;;;;;;;;;5072289;28;20056;-81
2023/08/16 07:36:04;;;;;;;18.88;10.30;;;;;;;;;;5072004;28;20201;-82
2023/08/16 07:38:33;;;;;;;14.95;8.57;;;;;;;;;;5072914;28;20135;-82
2023/08/16 07:41:01;;;;;;;9.38;6.90;;;;;;;;;;5071775;28;20160;-82
2023/08/16 07:43:29;;;;;;;8.63;6.68;;;;;;;;;;5076767;28;20103;-82
2023/08/16 07:45:56;;;;;;;9.95;7.35;;;;;;;;;;5082312;28;20422;-82
2023/08/16 07:48:24;;;;;;;5.93;5.30;;;;;;;;;;5077909;28;20059;-82
2023/08/16 07:50:51;;;;;;;8.65;6.38;;;;;;;;;;5077139;28;20051;-82
2023/08/16 07:53:18;;;;;;;6.47;5.85;;;;;;;;;;5078010;28;20060;-82
2023/08/16 07:55:45;;;;;;;7.32;5.50;;;;;;;;;;5076687;28;20135;-82
2023/08/16 07:58:15;;;;;;;11.20;5.50;;;;;;;;;;5076140;28;20510;-82
2023/08/16 08:00:46;;;;;;;5.78;4.70;;;;;;;;;;5076496;28;20044;-80
2023/08/16 08:03:13;;;;;;;6.68;4.40;;;;;;;;;;5075881;28;20062;-82
2023/08/16 08:05:40;;;;;;;9.40;4.90;;;;;;;;;;5075714;28;20087;-82
2023/08/16 08:08:09;;;;;;;7.18;5.10;;;;;;;;;;5075720;28;20514;-82
2023/08/16 08:10:37;;;;;;;9.30;6.00;;;;;;;;;;5075011;28;20044;-82
2023/08/16 08:13:04;;;;;;;7.10;5.30;;;;;;;;;;5074244;28;20049;-82
2023/08/16 08:15:31;;;;;;;7.60;6.43;;;;;;;;;;5074805;28;20104;-81
2023/08/16 08:17:59;;;;;;;7.68;6.07;;;;;;;;;;5074501;28;20041;-81
2023/08/16 08:20:26;;;;;;;7.68;6.43;;;;;;;;;;5072195;28;20055;-81
2023/08/16 08:22:54;;;;;;;9.45;6.50;;;;;;;;;;5071238;28;20099;-81
2023/08/16 08:25:21;;;;;;;8.20;6.20;;;;;;;;;;5070918;28;20048;-81
2023/08/16 08:27:48;;;;;;;9.52;6.75;;;;;;;;;;5070647;28;20105;-80
2023/08/16 08:30:18;;;;;;;10.20;6.30;;;;;;;;;;5071228;28;20419;-80
2023/08/16 08:32:45;;;;;;;7.53;5.97;;;;;;;;;;5071066;28;20075;-81
2023/08/16 08:35:12;;;;;;;6.60;5.85;;;;;;;;;;5070627;28;20048;-81
2023/08/16 08:37:40;;;;;;;5.90;5.40;;;;;;;;;;5072357;28;20173;-81
2023/08/16 08:40:07;;;;;;;5.25;4.75;;;;;;;;;;5070824;28;20491;-81
2023/08/16 08:42:35;;;;;;;5.38;4.93;;;;;;;;;;5070683;28;20048;-81
2023/08/16 08:45:02;;;;;;;9.32;5.22;;;;;;;;;;5071791;28;20598;-81
2023/08/16 08:47:30;;;;;;;5.20;4.45;;;;;;;;;;5071980;28;20057;-82
2023/08/16 08:49:58;;;;;;;7.90;4.70;;;;;;;;;;5070670;28;20048;-81
2023/08/16 08:52:26;;;;;;;4.78;4.47;;;;;;;;;;5070748;28;20056;-81
2023/08/16 08:54:53;;;;;;;5.18;3.90;;;;;;;;;;5070599;28;20041;-81
2023/08/16 08:57:21;;;;;;;4.57;4.15;;;;;;;;;;5070495;28;20064;-82
2023/08/16 08:59:49;;;;;;;4.60;4.20;;;;;;;;;;5072642;28;20048;-82
2023/08/16 09:02:20;;;;;;;4.60;4.20;;;;;;;;;;5071642;28;20072;-81
2023/08/16 09:04:50;;;;;;;5.10;4.70;;;;;;;;;;5070604;28;20091;-81
2023/08/16 09:07:18;;;;;;;5.03;4.63;;;;;;;;;;5071318;28;20052;-82
2023/08/16 09:09:48;;;;;;;5.40;5.00;;;;;;;;;;5071813;28;20064;-82
2023/08/16 09:12:15;;;;;;;5.18;4.78;;;;;;;;;;5071732;28;20076;-82
2023/08/16 09:14:43;;;;;;;5.00;4.70;;;;;;;;;;5070667;28;20055;-82
2023/08/16 09:17:10;;;;;;;5.55;4.82;;;;;;;;;;5070464;28;20045;-82
2023/08/16 09:19:46;;;;;;;5.57;5.07;;;;;;;;;;5073905;28;20076;-82
2023/08/16 09:22:14;;;;;;;5.93;5.53;;;;;;;;;;5078611;28;20086;-82
2023/08/16 09:24:43;;;;;;;6.00;5.22;;;;;;;;;;5083048;28;20048;-82
2023/08/16 09:27:10;;;;;;;7.45;5.65;;;;;;;;;;5082315;28;20056;-83
2023/08/16 09:29:39;;;;;;;6.18;5.65;;;;;;;;;;5081110;28;20052;-83
2023/08/16 09:32:09;;;;;;;6.50;6.00;;;;;;;;;;5080089;28;20052;-82
2023/08/16 09:34:43;;;;;;;5.72;5.32;;;;;;;;;;5081250;28;20055;-82
2023/08/16 09:37:13;;;;;;;6.57;5.78;;;;;;;;;;5081638;28;20040;-82
2023/08/16 09:39:40;;;;;;;5.72;5.28;;;;;;;;;;5080831;28;20052;-82
2023/08/16 09:42:08;;;;;;;6.13;5.70;;;;;;;;;;5078765;28;20102;-82
2023/08/16 09:44:36;;;;;;;5.80;5.30;;;;;;;;;;5078011;28;20114;-82
2023/08/16 09:47:17;;;;;;;6.00;5.50;;;;;;;;;;5078340;28;20511;-82
2023/08/16 09:49:49;;;;;;;5.57;5.18;;;;;;;;;;5077429;28;20582;-82
2023/08/16 09:52:16;;;;;;;6.97;5.65;;;;;;;;;;5078193;28;20054;-82
2023/08/16 09:54:47;;;;;;;5.90;5.40;;;;;;;;;;5075691;28;20086;-83
2023/08/16 09:57:15;;;;;;;5.72;5.20;;;;;;;;;;5081737;28;20048;-81
2023/08/16 09:59:45;;;;;;;6.63;5.95;;;;;;;;;;5079384;28;20052;-82
2023/08/16 10:02:14;;;;;;;5.55;5.15;;;;;;;;;;5082813;28;20074;-82
2023/08/16 10:04:41;;;;;;;5.38;4.97;;;;;;;;;;5089758;28;20055;-82
2023/08/16 10:07:12;;;;;;;7.05;5.03;;;;;;;;;;5092087;28;20063;-82
2023/08/16 10:09:44;;;;;;;4.57;4.28;;;;;;;;;;5084033;28;20041;-83
2023/08/16 10:12:11;;;;;;;5.80;5.20;;;;;;;;;;5083439;28;20049;-82
2023/08/16 10:14:39;;;;;;;5.18;4.68;;;;;;;;;;5082495;28;20132;-82
2023/08/16 10:17:06;;;;;;;5.82;4.60;;;;;;;;;;5084462;28;20076;-83
2023/08/16 10:19:36;;;;;;;4.97;4.57;;;;;;;;;;5080338;28;20107;-82
2023/08/16 10:22:08;;;;;;;4.80;4.50;;;;;;;;;;5081745;28;20488;-83
2023/08/16 10:24:54;;;;;;;4.88;4.43;;;;;;;;;;5082120;28;20063;-82
2023/08/16 10:27:22;;;;;;;6.22;5.20;;;;;;;;;;5083080;28;20084;-83
2023/08/16 10:29:53;;;;;;;5.00;4.70;;;;;;;;;;5080756;28;20070;-82
2023/08/16 10:32:24;;;;;;;4.47;4.15;;;;;;;;;;5081507;28;20060;-83
2023/08/16 10:34:55;;;;;;;5.50;5.00;;;;;;;;;;5080268;28;20048;-82
2023/08/16 10:37:25;;;;;;;5.20;4.90;;;;;;;;;;5081206;28;20040;-81
2023/08/16 10:39:52;;;;;;;5.20;4.80;;;;;;;;;;5080352;28;20142;-81
2023/08/16 10:42:26;;;;;;;5.55;5.05;;;;;;;;;;5079285;28;20561;-81
2023/08/16 10:44:54;;;;;;;5.38;4.97;;;;;;;;;;5079777;28;20137;-82
2023/08/16 10:47:31;;;;;;;6.55;4.53;;;;;;;;;;5077331;28;20056;-82
2023/08/16 10:50:01;;;;;;;5.45;5.05;;;;;;;;;;5080001;28;20546;-83
2023/08/16 10:52:29;;;;;;;5.80;5.30;;;;;;;;;;5077271;28;20049;-81
2023/08/16 10:54:59;;;;;;;6.85;5.70;;;;;;;;;;5078522;28;20086;-81
2023/08/16 10:57:27;;;;;;;7.10;6.40;;;;;;;;;;5079040;28;20127;-80
2023/08/16 11:00:08;;;;;;;6.82;6.22;;;;;;;;;;5077570;28;20098;-82
2023/08/16 11:02:37;;;;;;;6.88;6.28;;;;;;;;;;5084221;28;20076;-81
2023/08/16 11:05:05;;;;;;;7.18;6.40;;;;;;;;;;5084270;28;20075;-81
2023/08/16 11:07:32;;;;;;;8.10;7.32;;;;;;;;;;5085081;28;20058;-81
2023/08/16 11:10:00;;;;;;;9.63;7.05;;;;;;;;;;5082203;28;20048;-82
2023/08/16 11:12:31;;;;;;;7.32;6.63;;;;;;;;;;5079501;28;20056;-81
2023/08/16 11:14:59;;;;;;;8.07;7.30;;;;;;;;;;5082770;28;20469;-82
2023/08/16 11:17:26;;;;;;;7.53;6.60;;;;;;;;;;5080828;28;20460;-81
2023/08/16 11:19:54;;;;;;;7.18;6.47;;;;;;;;;;5080738;28;20056;-81
2023/08/16 11:22:22;;;;;;;8.55;7.00;;;;;;;;;;5079158;28;20479;-81
2023/08/16 11:24:51;;;;;;;7.05;6.40;;;;;;;;;;5078922;28;20048;-81
2023/08/16 11:27:22;;;;;;;13.90;7.00;;;;;;;;;;5076899;28;20056;-81
2023/08/16 11:30:00;;;;;;;7.13;6.43;;;;;;;;;;5078881;28;20111;-82
2023/08/16 11:32:35;;;;;;;7.25;6.50;;;;;;;;;;5077803;28;20045;-81
2023/08/16 11:35:11;;;;;;;7.65;6.32;;;;;;;;;;5080216;28;20064;-81
2023/08/16 11:37:41;;;;;;;7.07;5.45;;;;;;;;;;5078259;28;20586;-81
2023/08/16 11:40:09;;;;;;;5.70;5.20;;;;;;;;;;5073712;28;20048;-81
2023/08/16 11:42:36;;;;;;;5.85;5.35;;;;;;;;;;5074458;28;20415;-81
2023/08/16 11:45:24;;;;;;;9.77;5.60;;;;;;;;;;5072282;28;20102;-81
2023/08/16 11:47:52;;;;;;;5.25;4.85;;;;;;;;;;5074849;28;20048;-81
2023/08/16 11:50:20;;;;;;;6.00;5.40;;;;;;;;;;5074335;28;20052;-81
2023/08/16 11:52:57;;;;;;;5.82;5.32;;;;;;;;;;5074640;28;20464;-81
2023/08/16 11:55:25;;;;;;;8.55;5.25;;;;;;;;;;5076521;28;20044;-79
2023/08/16 11:57:53;;;;;;;5.63;5.05;;;;;;;;;;5076007;28;20055;-83
2023/08/16 12:00:29;;;;;;;5.13;4.68;;;;;;;;;;5078714;28;20107;-82
2023/08/16 12:03:23;;;;;;;5.30;4.80;;;;;;;;;;5077048;28;20503;-82
2023/08/16 12:05:50;;;;;;;;;;;;;;;;;;5074969;28;20054;-83
2023/08/16 12:08:21;;;;;;;5.22;4.72;;;;;;;;;;5077876;28;19963;-81
2023/08/16 12:10:54;;;;;;;5.20;4.70;;;;;;;;;;5080412;28;20135;-82
2023/08/16 12:13:22;;;;;;;6.95;5.10;;;;;;;;;;5077368;28;20053;-80
2023/08/16 12:15:50;;;;;;;6.45;5.57;;;;;;;;;;5076768;28;20067;-81
2023/08/16 12:18:18;;;;;;;5.72;5.18;;;;;;;;;;5077058;28;20051;-81
2023/08/16 12:20:52;;;;;;;6.07;5.47;;;;;;;;;;5077270;28;20051;-81
2023/08/16 12:23:20;;;;;;;5.38;4.75;;;;;;;;;;5077901;28;20429;-81
2023/08/16 12:25:48;;;;;;;6.95;5.22;;;;;;;;;;5078301;28;20059;-82
2023/08/16 12:28:15;;;;;;;10.63;6.38;;;;;;;;;;5078492;28;20507;-81
2023/08/16 12:30:43;;;;;;;6.88;6.15;;;;;;;;;;5077698;28;20049;-82
2023/08/16 12:33:12;;;;;;;7.25;6.30;;;;;;;;;;5079758;28;20568;-81
2023/08/16 12:35:39;;;;;;;8.20;5.65;;;;;;;;;;5078880;28;20044;-81
2023/08/16 12:38:09;;;;;;;8.07;5.47;;;;;;;;;;5080781;28;20108;-81
2023/08/16 12:40:38;;;;;;;6.25;5.65;;;;;;;;;;5081338;28;20071;-81
2023/08/16 12:43:06;;;;;;;6.38;5.88;;;;;;;;;;5082099;28;20052;-82
2023/08/16 12:45:38;;;;;;;7.53;6.20;;;;;;;;;;5081371;28;20048;-82
2023/08/16 12:48:05;;;;;;;6.10;5.50;;;;;;;;;;5080531;28;20139;-81
2023/08/16 12:50:33;;;;;;;7.38;6.22;;;;;;;;;;5080597;28;20056;-81
2023/08/16 12:53:01;;;;;;;7.07;5.93;;;;;;;;;;5081994;28;20458;-81
2023/08/16 12:55:40;;;;;;;8.45;6.20;;;;;;;;;;5081227;28;20075;-82
2023/08/16 12:58:09;;;;;;;9.88;6.60;;;;;;;;;;5080698;28;20044;-83
2023/08/16 13:00:47;;;;;;;7.38;6.60;;;;;;;;;;5081734;28;20414;-84
2023/08/16 13:03:15;;;;;;;8.02;7.22;;;;;;;;;;5080140;28;20048;-84
2023/08/16 13:05:47;;;;;;;9.48;7.65;;;;;;;;;;5080665;28;20102;-83
2023/08/16 13:08:17;;;;;;;7.93;7.22;;;;;;;;;;5083515;28;20100;-83
2023/08/16 13:10:55;;;;;;;9.98;7.45;;;;;;;;;;5079232;28;20056;-82
2023/08/16 13:13:34;;;;;;;11.52;8.35;;;;;;;;;;5082456;28;20056;-81
2023/08/16 13:16:03;;;;;;;8.32;7.60;;;;;;;;;;5091261;28;20045;-81
2023/08/16 13:18:33;;;;;;;9.85;8.00;;;;;;;;;;5087697;28;20052;-82
2023/08/16 13:21:03;;;;;;;9.80;8.85;;;;;;;;;;5095758;28;20049;-82
2023/08/16 13:23:47;;;;;;;9.77;7.30;;;;;;;;;;5096029;28;20055;-81
2023/08/16 13:26:17;;;;;;;9.00;7.78;;;;;;;;;;5092750;28;20052;-82
2023/08/16 13:28:50;;;;;;;10.68;7.28;;;;;;;;;;5081239;28;20135;-81
2023/08/16 13:31:34;;;;;;;7.70;7.10;;;;;;;;;;5081780;28;20049;-81
2023/08/16 13:34:22;;;;;;;8.15;6.60;;;;;;;;;;5081064;28;20144;-81
2023/08/16 13:36:52;;;;;;;8.23;7.28;;;;;;;;;;5080870;28;20094;-81
2023/08/16 13:39:24;;;;;;;6.95;6.35;;;;;;;;;;5080835;28;20040;-82
2023/08/16 13:41:57;;;;;;;8.63;7.70;;;;;;;;;;5079239;28;20052;-81
2023/08/16 13:44:27;;;;;;;7.90;7.10;;;;;;;;;;5080394;28;20044;-80
2023/08/16 13:47:14;;;;;;;7.43;6.72;;;;;;;;;;5080456;28;20056;-81
2023/08/16 13:49:45;;;;;;;8.98;8.07;;;;;;;;;;5080736;28;20112;-81
2023/08/16 13:52:12;;;;;;;8.00;7.03;;;;;;;;;;5080668;28;20075;-82
2023/08/16 13:54:40;;;;;;;9.07;7.60;;;;;;;;;;5079501;28;20050;-81
2023/08/16 13:57:07;;;;;;;7.90;7.20;;;;;;;;;;5078402;28;20090;-80
2023/08/16 13:59:34;;;;;;;8.48;7.68;;;;;;;;;;5077622;28;20048;-81
2023/08/16 14:02:01;;;;;;;9.10;7.22;;;;;;;;;;5080824;28;20074;-81
2023/08/16 14:04:29;;;;;;;6.97;6.38;;;;;;;;;;5076810;28;20491;-81
2023/08/16 14:06:56;;;;;;;9.68;7.47;;;;;;;;;;5080169;28;20059;-81
2023/08/16 14:09:23;;;;;;;8.60;7.15;;;;;;;;;;5079798;28;20097;-82
2023/08/16 14:11:50;;;;;;;8.20;6.55;;;;;;;;;;5078152;28;20056;-82
2023/08/16 14:14:17;;;;;;;7.03;6.32;;;;;;;;;;5077227;28;20060;-81
2023/08/16 14:16:45;;;;;;;7.05;6.45;;;;;;;;;;5079691;28;20564;-82
2023/08/16 14:19:12;;;;;;;7.47;6.78;;;;;;;;;;5079102;28;20503;-82
2023/08/16 14:21:39;;;;;;;7.03;6.43;;;;;;;;;;5078982;28;20055;-81
2023/08/16 14:24:10;;;;;;;7.70;6.63;;;;;;;;;;5083135;28;20060;-81
2023/08/16 14:26:37;;;;;;;7.43;6.72;;;;;;;;;;5081948;28;20487;-83
2023/08/16 14:29:06;;;;;;;7.40;6.70;;;;;;;;;;5081344;28;20159;-81
2023/08/16 14:31:33;;;;;;;7.40;6.80;;;;;;;;;;5079625;28;20048;-81
2023/08/16 14:34:00;;;;;;;7.38;6.70;;;;;;;;;;5081110;28;20094;-81
2023/08/16 14:36:27;;;;;;;7.70;6.40;;;;;;;;;;5078350;28;20048;-81
2023/08/16 14:38:55;;;;;;;7.03;6.30;;;;;;;;;;5079563;28;20047;-81
2023/08/16 14:41:27;;;;;;;7.20;6.50;;;;;;;;;;5079209;28;20045;-81
2023/08/16 14:43:54;;;;;;;6.88;6.38;;;;;;;;;;5078390;28;20076;-81
2023/08/16 14:46:22;;;;;;;7.25;6.65;;;;;;;;;;5080286;28;20048;-81
2023/08/16 14:48:50;;;;;;;8.60;6.20;;;;;;;;;;5077797;28;20418;-82